Joy, Kentucky
Current Conditions -  °F | °C
As of 9:55 PM on Tuesday 27 Jan 2015 (Local Time) from K5M9 Reporting Station
Scattered Clouds Scattered Clouds  
Wind Chill: 25°   Ceiling: Unl
Heat Index: 30°   Visibility: 10mi
Dew Point: 28°   Wind: 5mph
Humidity: 94%   Direction: 60°ENE
Pressure: 30.24"   Gusts: NA
Location:  37.3295°N, 88.3965°W
Report Text: K5M9 280355Z AUTO 06004KT 10SM SCT029 M01/M02 A3024 RMK AO2 T10131021
Loading
Personal Weather Stations






























Interactive Weather Map New forecast layout! Learn more

10-Day Weather Forecast

Advertisements
Track Severe Weather on mobile